Airport Name : Jonesboro Muni

Other Name : Jonesboro Muni

ICAO : KJBR

IATA : JBR

FAA : JBR

Latitude : 35.831708

Longitude : -90.646417

Country : United States

Local Date and Time : 28 Oct 2020 14:47

 

TAF (Terminal Aerodrome Forecast)

KJBR 281723Z 2818/2918 05009KT 3SM SHRA OVC004 TEMPO 2821/2823 1SM SHRA OVC001 FM282300 05010KT 1SM BR OVC004 TEMPO 2823/2903 3/4SM SHRA OVC001 FM290300 05012KT 1SM SHRA BR OVC003 WS020/13030KT FM290800 02010KT 2SM -SHRA OVC005 WS020/11030KT

 

METAR (METeorological Aerodrome Report)

KJBR 281910Z AUTO 06012KT 3SM -RA BR OVC004 11/11 A2989 RMK AO2 P0004 T01110106 TSNO $

KJBR 281901Z AUTO 06012KT 2 1/2SM -RA BR OVC004 11/11 A2990 RMK AO2 P0003 T01110106 TSNO $

KJBR 281853Z AUTO 06010KT 3SM -RA BR OVC004 11/11 A2991 RMK AO2 SLP128 P0010 T01060106 TSNO $

KJBR 281845Z AUTO 06011KT 3SM RA BR OVC004 11/11 A2991 RMK AO2 P0009 T01060106 TSNO $

KJBR 281834Z AUTO 05011KT 2 1/2SM RA BR OVC004 11/11 A2991 RMK AO2 PRESFR P0007 T01060106 TSNO $

KJBR 281823Z AUTO 04010KT 4SM RA BR OVC004 11/10 A2993 RMK AO2 P0003 T01060100 TSNO $

KJBR 281753Z AUTO 05014KT 5SM -RA BR OVC005 10/09 A2995 RMK AO2 SLP140 P0011 60027 T01000094 10100 20078 58037 TSNO $

KJBR 281704Z AUTO 04010KT 3SM RA BR OVC005 09/09 A2998 RMK AO2 PRESFR P0003 T00940089 TSNO $

KJBR 281653Z AUTO 03009KT 3SM RA BR OVC004 09/08 A2999 RMK AO2 RAB1557 PRESFR SLP156 P0016 T00940083 TSNO $

KJBR 281630Z AUTO 04008KT 2SM RA BR OVC004 09/08 A3002 RMK AO2 RAB1557 P0009 T00890078 TSNO $

KJBR 281553Z AUTO 04009KT 1 1/2SM BR OVC003 09/08 A3004 RMK AO2 RAB36E46 SLP172 P0000 T00890078 TSNO $

To Charter a Jet Click here.